sensor_id;sensor_type;location;lat;lon;timestamp;pressure;altitude;pressure_sealevel;temperature
69420;BMP280;56612;52.030;113.524;2023-01-05T00:01:47;93416.53;;;-24.23
69420;BMP280;56612;52.030;113.524;2023-01-05T00:04:51;93420.50;;;-24.22
69420;BMP280;56612;52.030;113.524;2023-01-05T00:07:55;93428.19;;;-24.12
69420;BMP280;56612;52.030;113.524;2023-01-05T00:11:03;93441.81;;;-24.10
69420;BMP280;56612;52.030;113.524;2023-01-05T00:14:28;93446.22;;;-24.14
69420;BMP280;56612;52.030;113.524;2023-01-05T00:17:50;93445.63;;;-24.18
69420;BMP280;56612;52.030;113.524;2023-01-05T00:21:13;93448.53;;;-24.20
69420;BMP280;56612;52.030;113.524;2023-01-05T00:24:35;93458.84;;;-24.14
69420;BMP280;56612;52.030;113.524;2023-01-05T00:27:42;93456.13;;;-24.20
69420;BMP280;56612;52.030;113.524;2023-01-05T00:30:47;93461.88;;;-24.19
69420;BMP280;56612;52.030;113.524;2023-01-05T00:33:50;93468.03;;;-24.20
69420;BMP280;56612;52.030;113.524;2023-01-05T00:36:53;93475.06;;;-24.11
69420;BMP280;56612;52.030;113.524;2023-01-05T00:39:58;93478.13;;;-24.20
69420;BMP280;56612;52.030;113.524;2023-01-05T00:43:01;93487.41;;;-24.01
69420;BMP280;56612;52.030;113.524;2023-01-05T00:46:05;93471.16;;;-23.87
69420;BMP280;56612;52.030;113.524;2023-01-05T00:49:10;93473.47;;;-23.93
69420;BMP280;56612;52.030;113.524;2023-01-05T00:52:13;93473.84;;;-23.94
69420;BMP280;56612;52.030;113.524;2023-01-05T00:55:16;93481.09;;;-23.80
69420;BMP280;56612;52.030;113.524;2023-01-05T00:58:20;93497.88;;;-23.73
69420;BMP280;56612;52.030;113.524;2023-01-05T01:01:23;93495.63;;;-23.84
69420;BMP280;56612;52.030;113.524;2023-01-05T01:04:27;93499.97;;;-23.84
69420;BMP280;56612;52.030;113.524;2023-01-05T01:07:31;93490.16;;;-23.82
69420;BMP280;56612;52.030;113.524;2023-01-05T01:10:38;93487.59;;;-23.66
69420;BMP280;56612;52.030;113.524;2023-01-05T01:13:43;93502.34;;;-23.52
69420;BMP280;56612;52.030;113.524;2023-01-05T01:16:47;93493.56;;;-23.34
69420;BMP280;56612;52.030;113.524;2023-01-05T01:19:50;93498.88;;;-23.29
69420;BMP280;56612;52.030;113.524;2023-01-05T01:22:54;93493.81;;;-23.29
69420;BMP280;56612;52.030;113.524;2023-01-05T01:26:05;93494.41;;;-23.12
69420;BMP280;56612;52.030;113.524;2023-01-05T01:29:08;93487.53;;;-23.11
69420;BMP280;56612;52.030;113.524;2023-01-05T01:32:11;93490.34;;;-22.96
69420;BMP280;56612;52.030;113.524;2023-01-05T01:35:14;93492.84;;;-22.71
69420;BMP280;56612;52.030;113.524;2023-01-05T01:38:19;93493.53;;;-22.45
69420;BMP280;56612;52.030;113.524;2023-01-05T01:41:23;93494.81;;;-22.05
69420;BMP280;56612;52.030;113.524;2023-01-05T01:44:57;93495.66;;;-21.55
69420;BMP280;56612;52.030;113.524;2023-01-05T01:48:09;93503.22;;;-21.33
69420;BMP280;56612;52.030;113.524;2023-01-05T01:51:19;93509.66;;;-21.10
69420;BMP280;56612;52.030;113.524;2023-01-05T01:54:24;93512.53;;;-20.90
69420;BMP280;56612;52.030;113.524;2023-01-05T01:57:28;93511.22;;;-21.13
69420;BMP280;56612;52.030;113.524;2023-01-05T02:00:32;93520.50;;;-21.10
69420;BMP280;56612;52.030;113.524;2023-01-05T02:03:36;93517.97;;;-21.10
69420;BMP280;56612;52.030;113.524;2023-01-05T02:06:41;93516.44;;;-20.67
69420;BMP280;56612;52.030;113.524;2023-01-05T02:09:45;93517.88;;;-20.29
69420;BMP280;56612;52.030;113.524;2023-01-05T02:30:21;93516.03;;;-20.38
69420;BMP280;56612;52.030;113.524;2023-01-05T02:34:28;93519.41;;;-21.00
69420;BMP280;56612;52.030;113.524;2023-01-05T02:37:20;93515.59;;;-21.13
69420;BMP280;56612;52.030;113.524;2023-01-05T02:40:35;93519.53;;;-21.12
69420;BMP280;56612;52.030;113.524;2023-01-05T02:43:43;93519.94;;;-21.45
69420;BMP280;56612;52.030;113.524;2023-01-05T02:47:53;93514.06;;;-21.64
69420;BMP280;56612;52.030;113.524;2023-01-05T02:53:50;93519.13;;;-21.42
69420;BMP280;56612;52.030;113.524;2023-01-05T02:57:11;93506.38;;;-21.29
69420;BMP280;56612;52.030;113.524;2023-01-05T03:00:24;93509.56;;;-21.38
69420;BMP280;56612;52.030;113.524;2023-01-05T03:03:40;93517.63;;;-21.52
69420;BMP280;56612;52.030;113.524;2023-01-05T03:06:58;93522.34;;;-21.51
69420;BMP280;56612;52.030;113.524;2023-01-05T03:10:05;93524.41;;;-21.27
69420;BMP280;56612;52.030;113.524;2023-01-05T03:13:29;93524.63;;;-21.03
69420;BMP280;56612;52.030;113.524;2023-01-05T03:16:52;93522.47;;;-20.73
69420;BMP280;56612;52.030;113.524;2023-01-05T03:19:59;93525.28;;;-20.71
69420;BMP280;56612;52.030;113.524;2023-01-05T03:23:05;93525.88;;;-20.67
69420;BMP280;56612;52.030;113.524;2023-01-05T03:26:28;93516.00;;;-20.56
69420;BMP280;56612;52.030;113.524;2023-01-05T03:29:55;93505.47;;;-20.45
69420;BMP280;56612;52.030;113.524;2023-01-05T03:33:31;93510.84;;;-20.25
69420;BMP280;56612;52.030;113.524;2023-01-05T03:37:03;93508.41;;;-20.10
69420;BMP280;56612;52.030;113.524;2023-01-05T03:40:15;93513.06;;;-19.99
69420;BMP280;56612;52.030;113.524;2023-01-05T03:43:26;93516.84;;;-19.76
69420;BMP280;56612;52.030;113.524;2023-01-05T03:46:30;93499.81;;;-20.03
69420;BMP280;56612;52.030;113.524;2023-01-05T03:49:35;93514.19;;;-20.00
69420;BMP280;56612;52.030;113.524;2023-01-05T03:52:39;93516.03;;;-19.92
69420;BMP280;56612;52.030;113.524;2023-01-05T03:55:44;93510.78;;;-19.88
69420;BMP280;56612;52.030;113.524;2023-01-05T03:58:48;93513.59;;;-19.86
69420;BMP280;56612;52.030;113.524;2023-01-05T04:01:52;93514.75;;;-19.87
69420;BMP280;56612;52.030;113.524;2023-01-05T04:04:57;93516.03;;;-19.83
69420;BMP280;56612;52.030;113.524;2023-01-05T04:08:01;93511.47;;;-19.69
69420;BMP280;56612;52.030;113.524;2023-01-05T04:11:19;93520.16;;;-19.43
69420;BMP280;56612;52.030;113.524;2023-01-05T04:14:28;93513.34;;;-19.27
69420;BMP280;56612;52.030;113.524;2023-01-05T04:17:32;93505.69;;;-19.18
69420;BMP280;56612;52.030;113.524;2023-01-05T04:20:37;93495.06;;;-18.93
69420;BMP280;56612;52.030;113.524;2023-01-05T04:23:42;93495.97;;;-18.72
69420;BMP280;56612;52.030;113.524;2023-01-05T04:26:46;93489.16;;;-18.51
69420;BMP280;56612;52.030;113.524;2023-01-05T04:29:51;93489.09;;;-18.41
69420;BMP280;56612;52.030;113.524;2023-01-05T04:32:55;93496.22;;;-18.31
69420;BMP280;56612;52.030;113.524;2023-01-05T04:35:59;93492.03;;;-18.19
69420;BMP280;56612;52.030;113.524;2023-01-05T04:39:05;93486.28;;;-18.05
69420;BMP280;56612;52.030;113.524;2023-01-05T04:42:27;93483.81;;;-17.84
69420;BMP280;56612;52.030;113.524;2023-01-05T04:45:32;93477.47;;;-17.74
69420;BMP280;56612;52.030;113.524;2023-01-05T04:48:36;93467.63;;;-17.81
69420;BMP280;56612;52.030;113.524;2023-01-05T04:51:39;93462.69;;;-17.70
69420;BMP280;56612;52.030;113.524;2023-01-05T04:54:43;93465.38;;;-17.59
69420;BMP280;56612;52.030;113.524;2023-01-05T04:57:47;93460.66;;;-17.51
69420;BMP280;56612;52.030;113.524;2023-01-05T05:00:53;93458.94;;;-17.39
69420;BMP280;56612;52.030;113.524;2023-01-05T05:03:57;93458.16;;;-17.45
69420;BMP280;56612;52.030;113.524;2023-01-05T05:07:01;93458.69;;;-17.41
69420;BMP280;56612;52.030;113.524;2023-01-05T05:10:06;93454.66;;;-17.28
69420;BMP280;56612;52.030;113.524;2023-01-05T05:13:12;93450.84;;;-17.17
69420;BMP280;56612;52.030;113.524;2023-01-05T05:16:16;93447.34;;;-17.20
69420;BMP280;56612;52.030;113.524;2023-01-05T05:19:21;93454.34;;;-17.00
69420;BMP280;56612;52.030;113.524;2023-01-05T05:22:25;93451.72;;;-16.85
69420;BMP280;56612;52.030;113.524;2023-01-05T05:25:32;93445.28;;;-16.81
69420;BMP280;56612;52.030;113.524;2023-01-05T05:28:36;93450.50;;;-16.69
69420;BMP280;56612;52.030;113.524;2023-01-05T05:31:40;93456.66;;;-16.56
69420;BMP280;56612;52.030;113.524;2023-01-05T05:34:43;93447.19;;;-16.49
69420;BMP280;56612;52.030;113.524;2023-01-05T05:37:48;93448.91;;;-16.41
69420;BMP280;56612;52.030;113.524;2023-01-05T05:40:58;93436.91;;;-16.29
69420;BMP280;56612;52.030;113.524;2023-01-05T05:44:01;93439.31;;;-16.25
69420;BMP280;56612;52.030;113.524;2023-01-05T05:47:05;93437.47;;;-16.19
69420;BMP280;56612;52.030;113.524;2023-01-05T05:50:09;93437.06;;;-16.12
69420;BMP280;56612;52.030;113.524;2023-01-05T05:53:13;93430.19;;;-16.00
69420;BMP280;56612;52.030;113.524;2023-01-05T05:56:16;93425.16;;;-15.89
69420;BMP280;56612;52.030;113.524;2023-01-05T05:59:38;93424.97;;;-15.80
69420;BMP280;56612;52.030;113.524;2023-01-05T06:02:42;93437.69;;;-15.60
69420;BMP280;56612;52.030;113.524;2023-01-05T06:05:45;93439.50;;;-13.40
69420;BMP280;56612;52.030;113.524;2023-01-05T06:08:49;93445.38;;;-12.40
69420;BMP280;56612;52.030;113.524;2023-01-05T06:12:10;93436.38;;;-13.16
69420;BMP280;56612;52.030;113.524;2023-01-05T06:15:15;93438.78;;;-13.40
69420;BMP280;56612;52.030;113.524;2023-01-05T06:18:20;93426.41;;;-13.42
69420;BMP280;56612;52.030;113.524;2023-01-05T06:21:23;93448.16;;;-11.47
69420;BMP280;56612;52.030;113.524;2023-01-05T06:24:26;93444.66;;;-8.98
69420;BMP280;56612;52.030;113.524;2023-01-05T06:27:31;93458.53;;;-7.78
69420;BMP280;56612;52.030;113.524;2023-01-05T06:30:34;93462.25;;;-5.48
69420;BMP280;56612;52.030;113.524;2023-01-05T06:33:57;93469.72;;;-4.39
69420;BMP280;56612;52.030;113.524;2023-01-05T06:37:00;93451.56;;;-7.83
69420;BMP280;56612;52.030;113.524;2023-01-05T06:40:05;93459.25;;;-9.35
69420;BMP280;56612;52.030;113.524;2023-01-05T06:43:08;93469.25;;;-6.35
69420;BMP280;56612;52.030;113.524;2023-01-05T06:46:12;93464.25;;;-4.84
69420;BMP280;56612;52.030;113.524;2023-01-05T06:49:16;93457.44;;;-3.62
69420;BMP280;56612;52.030;113.524;2023-01-05T06:52:58;93452.13;;;-4.56
69420;BMP280;56612;52.030;113.524;2023-01-05T06:56:20;93444.75;;;-8.57
69420;BMP280;56612;52.030;113.524;2023-01-05T06:59:23;93436.16;;;-10.31
69420;BMP280;56612;52.030;113.524;2023-01-05T07:02:27;93429.56;;;-11.21
69420;BMP280;56612;52.030;113.524;2023-01-05T07:05:31;93429.03;;;-10.76
69420;BMP280;56612;52.030;113.524;2023-01-05T07:08:34;93453.38;;;-6.90
69420;BMP280;56612;52.030;113.524;2023-01-05T07:11:38;93447.28;;;-7.01
69420;BMP280;56612;52.030;113.524;2023-01-05T07:14:41;93431.81;;;-9.65
69420;BMP280;56612;52.030;113.524;2023-01-05T07:17:45;93421.44;;;-11.25
69420;BMP280;56612;52.030;113.524;2023-01-05T07:20:48;93432.09;;;-10.27
69420;BMP280;56612;52.030;113.524;2023-01-05T07:23:53;93428.00;;;-9.64
69420;BMP280;56612;52.030;113.524;2023-01-05T07:26:59;93423.66;;;-10.14
69420;BMP280;56612;52.030;113.524;2023-01-05T07:30:11;93428.31;;;-10.26
69420;BMP280;56612;52.030;113.524;2023-01-05T07:33:15;93430.66;;;-9.03
69420;BMP280;56612;52.030;113.524;2023-01-05T07:36:19;93433.75;;;-8.70
69420;BMP280;56612;52.030;113.524;2023-01-05T07:39:23;93429.19;;;-10.04
69420;BMP280;56612;52.030;113.524;2023-01-05T07:42:27;93424.81;;;-11.36
69420;BMP280;56612;52.030;113.524;2023-01-05T07:45:32;93423.25;;;-12.59
69420;BMP280;56612;52.030;113.524;2023-01-05T07:48:36;93418.00;;;-13.42
69420;BMP280;56612;52.030;113.524;2023-01-05T07:51:40;93418.09;;;-13.81
69420;BMP280;56612;52.030;113.524;2023-01-05T07:54:45;93398.28;;;-14.26
69420;BMP280;56612;52.030;113.524;2023-01-05T07:57:48;93406.63;;;-14.42
69420;BMP280;56612;52.030;113.524;2023-01-05T08:00:53;93409.19;;;-14.53
69420;BMP280;56612;52.030;113.524;2023-01-05T08:03:57;93410.28;;;-14.82
69420;BMP280;56612;52.030;113.524;2023-01-05T08:07:01;93409.03;;;-15.21
69420;BMP280;56612;52.030;113.524;2023-01-05T08:10:05;93410.84;;;-15.27
69420;BMP280;56612;52.030;113.524;2023-01-05T08:13:27;93417.31;;;-15.37
69420;BMP280;56612;52.030;113.524;2023-01-05T08:17:08;93411.63;;;-15.58
69420;BMP280;56612;52.030;113.524;2023-01-05T08:20:30;93408.47;;;-15.79
69420;BMP280;56612;52.030;113.524;2023-01-05T08:23:34;93416.84;;;-15.84
69420;BMP280;56612;52.030;113.524;2023-01-05T08:26:37;93418.59;;;-15.96
69420;BMP280;56612;52.030;113.524;2023-01-05T08:29:40;93411.03;;;-16.16
69420;BMP280;56612;52.030;113.524;2023-01-05T08:32:44;93419.06;;;-16.23
69420;BMP280;56612;52.030;113.524;2023-01-05T08:35:47;93415.41;;;-16.48
69420;BMP280;56612;52.030;113.524;2023-01-05T08:38:54;93412.75;;;-16.60
69420;BMP280;56612;52.030;113.524;2023-01-05T08:41:58;93416.59;;;-16.70
69420;BMP280;56612;52.030;113.524;2023-01-05T08:45:04;93423.38;;;-16.61
69420;BMP280;56612;52.030;113.524;2023-01-05T08:48:08;93423.38;;;-16.61
69420;BMP280;56612;52.030;113.524;2023-01-05T08:51:31;93420.53;;;-16.69
69420;BMP280;56612;52.030;113.524;2023-01-05T08:54:53;93417.66;;;-16.77
69420;BMP280;56612;52.030;113.524;2023-01-05T08:57:56;93413.59;;;-16.89
69420;BMP280;56612;52.030;113.524;2023-01-05T09:00:59;93413.00;;;-16.98
69420;BMP280;56612;52.030;113.524;2023-01-05T09:04:03;93412.69;;;-17.06
69420;BMP280;56612;52.030;113.524;2023-01-05T09:07:06;93415.94;;;-17.06
69420;BMP280;56612;52.030;113.524;2023-01-05T09:10:09;93419.28;;;-16.99
69420;BMP280;56612;52.030;113.524;2023-01-05T09:13:13;93423.09;;;-17.10
69420;BMP280;56612;52.030;113.524;2023-01-05T09:16:19;93425.91;;;-17.08
69420;BMP280;56612;52.030;113.524;2023-01-05T09:19:43;93425.91;;;-17.08
69420;BMP280;56612;52.030;113.524;2023-01-05T09:22:47;93430.69;;;-17.15
69420;BMP280;56612;52.030;113.524;2023-01-05T09:25:50;93431.69;;;-17.28
69420;BMP280;56612;52.030;113.524;2023-01-05T09:28:53;93435.22;;;-17.25
69420;BMP280;56612;52.030;113.524;2023-01-05T09:31:57;93433.06;;;-17.32
69420;BMP280;56612;52.030;113.524;2023-01-05T09:35:01;93428.91;;;-17.30
69420;BMP280;56612;52.030;113.524;2023-01-05T09:38:24;93422.84;;;-17.32
69420;BMP280;56612;52.030;113.524;2023-01-05T09:42:04;93421.03;;;-17.26
69420;BMP280;56612;52.030;113.524;2023-01-05T09:45:28;93433.78;;;-17.46
69420;BMP280;56612;52.030;113.524;2023-01-05T09:48:41;93431.69;;;-17.63
69420;BMP280;56612;52.030;113.524;2023-01-05T09:51:50;93417.34;;;-17.60
69420;BMP280;56612;52.030;113.524;2023-01-05T09:54:57;93422.72;;;-17.58
69420;BMP280;56612;52.030;113.524;2023-01-05T09:58:13;93417.59;;;-17.58
69420;BMP280;56612;52.030;113.524;2023-01-05T10:01:19;93410.84;;;-17.61
69420;BMP280;56612;52.030;113.524;2023-01-05T10:04:25;93411.19;;;-17.54
69420;BMP280;56612;52.030;113.524;2023-01-05T10:07:59;93416.44;;;-17.57
69420;BMP280;56612;52.030;113.524;2023-01-05T10:15:17;93419.97;;;-17.55
69420;BMP280;56612;52.030;113.524;2023-01-05T10:18:27;93414.16;;;-17.55
69420;BMP280;56612;52.030;113.524;2023-01-05T10:21:43;93414.28;;;-17.64
69420;BMP280;56612;52.030;113.524;2023-01-05T10:25:22;93412.59;;;-17.67
69420;BMP280;56612;52.030;113.524;2023-01-05T10:28:44;93410.44;;;-17.75
69420;BMP280;56612;52.030;113.524;2023-01-05T10:32:08;93408.31;;;-17.76
69420;BMP280;56612;52.030;113.524;2023-01-05T10:35:42;93414.66;;;-17.71
69420;BMP280;56612;52.030;113.524;2023-01-05T10:39:29;93430.16;;;-17.90
69420;BMP280;56612;52.030;113.524;2023-01-05T10:46:18;93403.44;;;-18.24
69420;BMP280;56612;52.030;113.524;2023-01-05T10:49:43;93407.66;;;-18.36
69420;BMP280;56612;52.030;113.524;2023-01-05T10:53:20;93410.66;;;-18.37
69420;BMP280;56612;52.030;113.524;2023-01-05T10:56:25;93416.09;;;-18.30
69420;BMP280;56612;52.030;113.524;2023-01-05T10:59:32;93413.44;;;-18.35
69420;BMP280;56612;52.030;113.524;2023-01-05T11:02:40;93398.16;;;-18.35
69420;BMP280;56612;52.030;113.524;2023-01-05T11:05:46;93408.34;;;-18.35
69420;BMP280;56612;52.030;113.524;2023-01-05T11:08:51;93400.97;;;-18.33
69420;BMP280;56612;52.030;113.524;2023-01-05T11:12:00;93395.25;;;-18.28
69420;BMP280;56612;52.030;113.524;2023-01-05T11:15:12;93398.16;;;-18.35
69420;BMP280;56612;52.030;113.524;2023-01-05T11:18:30;93399.75;;;-18.23
69420;BMP280;56612;52.030;113.524;2023-01-05T11:28:19;93408.16;;;-18.17
69420;BMP280;56612;52.030;113.524;2023-01-05T11:31:35;93415.75;;;-18.37
69420;BMP280;56612;52.030;113.524;2023-01-05T11:37:48;93404.19;;;-18.62
69420;BMP280;56612;52.030;113.524;2023-01-05T11:40:51;93421.50;;;-18.67
69420;BMP280;56612;52.030;113.524;2023-01-05T11:43:55;93419.72;;;-18.75
69420;BMP280;56612;52.030;113.524;2023-01-05T11:47:04;93420.53;;;-18.93
69420;BMP280;56612;52.030;113.524;2023-01-05T11:56:36;93423.53;;;-18.95
69420;BMP280;56612;52.030;113.524;2023-01-05T11:59:40;93413.25;;;-19.00
69420;BMP280;56612;52.030;113.524;2023-01-05T12:06:09;93427.06;;;-19.01
69420;BMP280;56612;52.030;113.524;2023-01-05T12:09:30;93422.13;;;-18.96
69420;BMP280;56612;52.030;113.524;2023-01-05T12:19:41;93428.63;;;-18.95
69420;BMP280;56612;52.030;113.524;2023-01-05T12:26:34;93434.50;;;-19.13
69420;BMP280;56612;52.030;113.524;2023-01-05T12:51:15;93421.00;;;-19.28
69420;BMP280;56612;52.030;113.524;2023-01-05T12:54:29;93420.88;;;-19.33
69420;BMP280;56612;52.030;113.524;2023-01-05T12:57:40;93406.25;;;-19.48
69420;BMP280;56612;52.030;113.524;2023-01-05T13:01:22;93411.94;;;-19.53
69420;BMP280;56612;52.030;113.524;2023-01-05T13:04:53;93417.59;;;-19.49
69420;BMP280;56612;52.030;113.524;2023-01-05T13:11:34;93422.94;;;-19.47
69420;BMP280;56612;52.030;113.524;2023-01-05T13:14:46;93424.41;;;-19.55
69420;BMP280;56612;52.030;113.524;2023-01-05T13:17:55;93416.25;;;-19.68
69420;BMP280;56612;52.030;113.524;2023-01-05T13:21:01;93424.75;;;-19.71
69420;BMP280;56612;52.030;113.524;2023-01-05T13:24:20;93419.63;;;-19.62
69420;BMP280;56612;52.030;113.524;2023-01-05T13:27:31;93425.66;;;-19.60
69420;BMP280;56612;52.030;113.524;2023-01-05T13:30:41;93416.75;;;-19.55
69420;BMP280;56612;52.030;113.524;2023-01-05T13:52:24;93397.56;;;-19.65
69420;BMP280;56612;52.030;113.524;2023-01-05T13:55:24;93394.31;;;-19.66
69420;BMP280;56612;52.030;113.524;2023-01-05T14:01:45;93392.97;;;-19.76
69420;BMP280;56612;52.030;113.524;2023-01-05T14:05:24;93406.88;;;-20.04
69420;BMP280;56612;52.030;113.524;2023-01-05T14:08:33;93416.47;;;-20.09
69420;BMP280;56612;52.030;113.524;2023-01-05T14:11:37;93415.25;;;-20.13
69420;BMP280;56612;52.030;113.524;2023-01-05T14:15:02;93407.63;;;-20.32
69420;BMP280;56612;52.030;113.524;2023-01-05T14:18:08;93406.81;;;-20.38
69420;BMP280;56612;52.030;113.524;2023-01-05T14:28:43;93395.66;;;-20.40
69420;BMP280;56612;52.030;113.524;2023-01-05T14:31:49;93380.25;;;-20.37
69420;BMP280;56612;52.030;113.524;2023-01-05T14:38:24;93375.88;;;-20.27
69420;BMP280;56612;52.030;113.524;2023-01-05T14:42:03;93375.75;;;-20.33
69420;BMP280;56612;52.030;113.524;2023-01-05T14:45:21;93367.00;;;-20.41
69420;BMP280;56612;52.030;113.524;2023-01-05T14:48:33;93378.16;;;-20.29
69420;BMP280;56612;52.030;113.524;2023-01-05T14:51:37;93377.72;;;-20.37
69420;BMP280;56612;52.030;113.524;2023-01-05T14:58:24;93380.56;;;-20.44
69420;BMP280;56612;52.030;113.524;2023-01-05T15:01:46;93380.28;;;-20.46
69420;BMP280;56612;52.030;113.524;2023-01-05T15:05:13;93384.94;;;-20.54
69420;BMP280;56612;52.030;113.524;2023-01-05T15:15:48;93370.00;;;-20.70
69420;BMP280;56612;52.030;113.524;2023-01-05T15:30:27;93349.00;;;-20.80
69420;BMP280;56612;52.030;113.524;2023-01-05T15:37:39;93322.75;;;-20.95
69420;BMP280;56612;52.030;113.524;2023-01-05T15:41:10;93315.00;;;-21.10
69420;BMP280;56612;52.030;113.524;2023-01-05T15:44:16;93310.63;;;-21.00
69420;BMP280;56612;52.030;113.524;2023-01-05T15:47:25;93307.25;;;-21.15
69420;BMP280;56612;52.030;113.524;2023-01-05T15:50:42;93309.91;;;-21.47
69420;BMP280;56612;52.030;113.524;2023-01-05T15:53:56;93313.53;;;-21.66
69420;BMP280;56612;52.030;113.524;2023-01-05T15:57:00;93321.50;;;-21.86
69420;BMP280;56612;52.030;113.524;2023-01-05T16:00:18;93312.75;;;-21.85
69420;BMP280;56612;52.030;113.524;2023-01-05T16:03:43;93303.72;;;-21.95
69420;BMP280;56612;52.030;113.524;2023-01-05T16:07:05;93303.44;;;-21.97
69420;BMP280;56612;52.030;113.524;2023-01-05T16:10:20;93303.88;;;-21.99
69420;BMP280;56612;52.030;113.524;2023-01-05T16:14:13;93295.13;;;-21.98
69420;BMP280;56612;52.030;113.524;2023-01-05T16:17:18;93293.44;;;-22.01
69420;BMP280;56612;52.030;113.524;2023-01-05T16:20:25;93301.75;;;-22.00
69420;BMP280;56612;52.030;113.524;2023-01-05T16:23:39;93293.47;;;-21.92
69420;BMP280;56612;52.030;113.524;2023-01-05T16:26:46;93289.88;;;-21.72
69420;BMP280;56612;52.030;113.524;2023-01-05T16:29:50;93293.09;;;-21.72
69420;BMP280;56612;52.030;113.524;2023-01-05T16:36:20;93298.88;;;-21.71
69420;BMP280;56612;52.030;113.524;2023-01-05T16:39:25;93294.72;;;-21.96
69420;BMP280;56612;52.030;113.524;2023-01-05T16:42:44;93284.31;;;-21.98
69420;BMP280;56612;52.030;113.524;2023-01-05T16:45:48;93273.28;;;-22.04
69420;BMP280;56612;52.030;113.524;2023-01-05T16:48:59;93273.63;;;-21.93
69420;BMP280;56612;52.030;113.524;2023-01-05T16:52:06;93286.41;;;-21.97
69420;BMP280;56612;52.030;113.524;2023-01-05T16:55:29;93265.44;;;-21.97
69420;BMP280;56612;52.030;113.524;2023-01-05T16:58:34;93264.44;;;-22.00
69420;BMP280;56612;52.030;113.524;2023-01-05T17:01:43;93264.72;;;-22.07
69420;BMP280;56612;52.030;113.524;2023-01-05T17:04:46;93254.16;;;-22.05
69420;BMP280;56612;52.030;113.524;2023-01-05T17:08:20;93257.28;;;-21.92
69420;BMP280;56612;52.030;113.524;2023-01-05T17:11:28;93251.13;;;-21.91
69420;BMP280;56612;52.030;113.524;2023-01-05T17:14:33;93252.97;;;-21.82
69420;BMP280;56612;52.030;113.524;2023-01-05T17:17:36;93260.25;;;-21.84
69420;BMP280;56612;52.030;113.524;2023-01-05T17:20:41;93262.34;;;-22.01
69420;BMP280;56612;52.030;113.524;2023-01-05T17:23:48;93263.28;;;-22.08
69420;BMP280;56612;52.030;113.524;2023-01-05T17:26:53;93261.78;;;-21.96
69420;BMP280;56612;52.030;113.524;2023-01-05T17:29:56;93272.94;;;-21.84
69420;BMP280;56612;52.030;113.524;2023-01-05T17:33:01;93257.16;;;-21.88
69420;BMP280;56612;52.030;113.524;2023-01-05T17:36:05;93260.25;;;-22.03
69420;BMP280;56612;52.030;113.524;2023-01-05T17:39:19;93256.28;;;-22.04
69420;BMP280;56612;52.030;113.524;2023-01-05T17:42:23;93253.28;;;-22.21
69420;BMP280;56612;52.030;113.524;2023-01-05T17:45:45;93259.41;;;-22.31
69420;BMP280;56612;52.030;113.524;2023-01-05T17:48:49;93249.44;;;-22.34
69420;BMP280;56612;52.030;113.524;2023-01-05T17:51:52;93253.38;;;-22.33
69420;BMP280;56612;52.030;113.524;2023-01-05T17:55:16;93254.03;;;-22.42
69420;BMP280;56612;52.030;113.524;2023-01-05T17:58:19;93254.41;;;-22.53
69420;BMP280;56612;52.030;113.524;2023-01-05T18:01:22;93255.47;;;-22.63
69420;BMP280;56612;52.030;113.524;2023-01-05T18:04:25;93257.25;;;-22.73
69420;BMP280;56612;52.030;113.524;2023-01-05T18:07:31;93264.19;;;-22.64
69420;BMP280;56612;52.030;113.524;2023-01-05T18:10:36;93262.06;;;-22.66
69420;BMP280;56612;52.030;113.524;2023-01-05T18:13:40;93261.53;;;-22.61
69420;BMP280;56612;52.030;113.524;2023-01-05T18:16:48;93258.88;;;-22.57
69420;BMP280;56612;52.030;113.524;2023-01-05T18:19:51;93269.38;;;-22.46
69420;BMP280;56612;52.030;113.524;2023-01-05T18:22:55;93265.34;;;-22.34
69420;BMP280;56612;52.030;113.524;2023-01-05T18:26:05;93272.66;;;-22.27
69420;BMP280;56612;52.030;113.524;2023-01-05T18:29:08;93243.38;;;-22.28
69420;BMP280;56612;52.030;113.524;2023-01-05T18:32:12;93261.69;;;-22.24
69420;BMP280;56612;52.030;113.524;2023-01-05T18:35:34;93258.84;;;-22.35
69420;BMP280;56612;52.030;113.524;2023-01-05T18:38:44;93256.59;;;-22.33
69420;BMP280;56612;52.030;113.524;2023-01-05T18:42:06;93266.59;;;-22.29
69420;BMP280;56612;52.030;113.524;2023-01-05T18:45:29;93269.50;;;-22.40
69420;BMP280;56612;52.030;113.524;2023-01-05T18:48:40;93272.59;;;-22.45
69420;BMP280;56612;52.030;113.524;2023-01-05T18:51:44;93268.81;;;-22.63
69420;BMP280;56612;52.030;113.524;2023-01-05T18:54:48;93272.91;;;-22.65
69420;BMP280;56612;52.030;113.524;2023-01-05T18:57:51;93264.34;;;-22.59
69420;BMP280;56612;52.030;113.524;2023-01-05T19:00:54;93270.25;;;-22.62
69420;BMP280;56612;52.030;113.524;2023-01-05T19:03:58;93263.50;;;-22.65
69420;BMP280;56612;52.030;113.524;2023-01-05T19:07:02;93265.38;;;-22.56
69420;BMP280;56612;52.030;113.524;2023-01-05T19:10:05;93244.69;;;-22.54
69420;BMP280;56612;52.030;113.524;2023-01-05T19:13:08;93247.28;;;-22.45
69420;BMP280;56612;52.030;113.524;2023-01-05T19:16:12;93240.97;;;-22.41
69420;BMP280;56612;52.030;113.524;2023-01-05T19:19:19;93238.56;;;-22.44
69420;BMP280;56612;52.030;113.524;2023-01-05T19:22:22;93238.13;;;-22.43
69420;BMP280;56612;52.030;113.524;2023-01-05T19:25:44;93230.53;;;-22.43
69420;BMP280;56612;52.030;113.524;2023-01-05T19:28:47;93227.53;;;-22.50
69420;BMP280;56612;52.030;113.524;2023-01-05T19:31:53;93223.81;;;-22.68
69420;BMP280;56612;52.030;113.524;2023-01-05T19:35:14;93223.50;;;-22.70
69420;BMP280;56612;52.030;113.524;2023-01-05T19:38:17;93230.00;;;-22.69
69420;BMP280;56612;52.030;113.524;2023-01-05T19:41:22;93234.75;;;-22.71
69420;BMP280;56612;52.030;113.524;2023-01-05T19:44:26;93232.09;;;-22.67
69420;BMP280;56612;52.030;113.524;2023-01-05T19:47:30;93237.50;;;-22.65
69420;BMP280;56612;52.030;113.524;2023-01-05T19:50:33;93242.78;;;-22.72
69420;BMP280;56612;52.030;113.524;2023-01-05T19:53:38;93240.03;;;-22.87
69420;BMP280;56612;52.030;113.524;2023-01-05T19:56:42;93247.84;;;-22.94